createdAt,value
2023-05-09T00:00:08.356Z,506.00
2023-05-09T00:01:08.388Z,506.00
2023-05-09T00:02:08.455Z,505.00
2023-05-09T00:03:08.494Z,510.00
2023-05-09T00:04:08.516Z,505.00
2023-05-09T00:05:08.522Z,508.00
2023-05-09T00:06:08.614Z,506.00
2023-05-09T00:07:08.556Z,502.00
2023-05-09T00:08:08.565Z,508.00
2023-05-09T00:09:08.622Z,507.00
2023-05-09T00:10:08.695Z,505.00
2023-05-09T00:11:08.666Z,507.00
2023-05-09T00:12:08.707Z,511.00
2023-05-09T00:13:08.768Z,507.00
2023-05-09T00:14:08.809Z,506.00
2023-05-09T00:15:08.784Z,511.00
2023-05-09T00:16:08.875Z,502.00
2023-05-09T00:17:08.858Z,500.00
2023-05-09T00:18:08.883Z,505.00
2023-05-09T00:19:08.905Z,504.00
2023-05-09T00:20:08.938Z,505.00
2023-05-09T00:21:08.944Z,506.00
2023-05-09T00:22:09.062Z,501.00
2023-05-09T00:23:09.015Z,505.00
2023-05-09T00:24:09.067Z,512.00
2023-05-09T00:25:09.057Z,512.00
2023-05-09T00:26:09.108Z,504.00
2023-05-09T00:27:09.120Z,509.00
2023-05-09T00:28:09.163Z,509.00
2023-05-09T00:29:09.166Z,511.00
2023-05-09T00:30:09.167Z,500.00
2023-05-09T00:31:09.208Z,505.00
2023-05-09T00:32:09.403Z,502.00
2023-05-09T00:33:09.286Z,503.00
2023-05-09T00:34:09.269Z,502.00
2023-05-09T00:35:09.304Z,509.00
2023-05-09T00:36:09.307Z,507.00
2023-05-09T00:37:09.358Z,505.00
2023-05-09T00:38:09.455Z,506.00
2023-05-09T00:39:09.370Z,503.00
2023-05-09T00:40:09.430Z,507.00
2023-05-09T00:41:09.475Z,507.00
2023-05-09T00:42:09.838Z,508.00
2023-05-09T00:43:09.508Z,501.00
2023-05-09T00:44:09.553Z,506.00
2023-05-09T00:45:09.573Z,504.00
2023-05-09T00:46:09.660Z,502.00
2023-05-09T00:47:09.637Z,513.00
2023-05-09T00:48:09.644Z,508.00
2023-05-09T00:49:09.677Z,506.00
2023-05-09T00:50:09.691Z,505.00
2023-05-09T00:51:09.733Z,506.00
2023-05-09T00:52:09.872Z,508.00
2023-05-09T00:53:09.772Z,513.00
2023-05-09T00:54:09.921Z,511.00
2023-05-09T00:55:09.831Z,501.00
2023-05-09T00:56:09.863Z,508.00
2023-05-09T00:57:09.913Z,504.00
2023-05-09T00:58:09.951Z,505.00
2023-05-09T00:59:09.976Z,506.00
2023-05-09T01:00:10.003Z,505.00
2023-05-09T01:01:10.028Z,506.00
2023-05-09T01:02:10.023Z,509.00
2023-05-09T01:03:10.123Z,507.00
2023-05-09T01:04:10.084Z,501.00
2023-05-09T01:05:10.118Z,510.00
2023-05-09T01:06:10.176Z,509.00
2023-05-09T01:07:10.193Z,504.00
2023-05-09T01:08:10.202Z,506.00
2023-05-09T01:09:10.268Z,511.00
2023-05-09T01:10:10.355Z,509.00
2023-05-09T01:11:10.270Z,511.00
2023-05-09T01:12:10.345Z,507.00
2023-05-09T01:13:10.399Z,508.00
2023-05-09T01:14:10.400Z,506.00
2023-05-09T01:15:10.417Z,508.00
2023-05-09T01:16:10.521Z,509.00
2023-05-09T01:17:10.494Z,512.00
2023-05-09T01:18:10.548Z,502.00
2023-05-09T01:19:10.537Z,508.00
2023-05-09T01:20:10.570Z,505.00
2023-05-09T01:21:10.568Z,504.00
2023-05-09T01:22:10.593Z,503.00
2023-05-09T01:23:10.640Z,511.00
2023-05-09T01:24:10.699Z,512.00
2023-05-09T01:25:10.712Z,506.00
2023-05-09T01:26:10.807Z,506.00
2023-05-09T01:27:10.767Z,507.00
2023-05-09T01:28:10.786Z,510.00
2023-05-09T01:29:10.824Z,508.00
2023-05-09T01:30:10.891Z,503.00
2023-05-09T01:31:10.880Z,510.00
2023-05-09T01:32:10.883Z,510.00
2023-05-09T01:33:10.983Z,508.00
2023-05-09T01:34:10.966Z,502.00
2023-05-09T01:35:10.959Z,509.00
2023-05-09T01:36:10.970Z,507.00
2023-05-09T01:37:11.036Z,506.00
2023-05-09T01:38:11.046Z,504.00
2023-05-09T01:39:11.064Z,511.00
2023-05-09T01:40:11.093Z,505.00
2023-05-09T01:41:11.117Z,509.00
2023-05-09T01:42:11.230Z,506.00
2023-05-09T01:43:11.180Z,510.00
2023-05-09T01:44:11.297Z,510.00
2023-05-09T01:45:11.270Z,508.00
2023-05-09T01:46:11.315Z,508.00
2023-05-09T01:47:11.323Z,507.00
2023-05-09T01:48:11.304Z,508.00
2023-05-09T01:49:11.331Z,511.00
2023-05-09T01:50:11.371Z,504.00
2023-05-09T01:51:11.417Z,511.00
2023-05-09T01:52:11.462Z,515.00
2023-05-09T01:53:11.450Z,509.00
2023-05-09T01:54:11.515Z,509.00
2023-05-09T01:55:11.619Z,506.00
2023-05-09T01:56:11.572Z,509.00
2023-05-09T01:57:11.590Z,510.00
2023-05-09T01:58:11.682Z,512.00
2023-05-09T01:59:11.640Z,506.00
2023-05-09T02:00:11.682Z,509.00
2023-05-09T02:01:11.713Z,502.00
2023-05-09T02:02:11.893Z,505.00
2023-05-09T02:03:11.812Z,513.00
2023-05-09T02:04:11.805Z,503.00
2023-05-09T02:05:12.128Z,510.00
2023-05-09T02:06:11.812Z,507.00
2023-05-09T02:07:11.896Z,504.00
2023-05-09T02:08:11.922Z,503.00
2023-05-09T02:09:11.940Z,515.00
2023-05-09T02:10:12.012Z,507.00
2023-05-09T02:11:12.037Z,514.00
2023-05-09T02:12:12.043Z,511.00
2023-05-09T02:13:12.090Z,515.00
2023-05-09T02:14:12.200Z,503.00
2023-05-09T02:15:12.329Z,516.00
2023-05-09T02:16:12.184Z,506.00
2023-05-09T02:17:12.197Z,508.00
2023-05-09T02:18:12.247Z,506.00
2023-05-09T02:19:12.276Z,511.00
2023-05-09T02:20:12.288Z,508.00
2023-05-09T02:21:12.391Z,511.00
2023-05-09T02:22:12.379Z,505.00
2023-05-09T02:23:12.378Z,505.00
2023-05-09T02:24:12.406Z,516.00
2023-05-09T02:25:12.594Z,512.00
2023-05-09T02:26:12.468Z,514.00
2023-05-09T02:27:12.480Z,507.00
2023-05-09T02:28:12.520Z,508.00
2023-05-09T02:29:12.549Z,513.00
2023-05-09T02:30:12.667Z,513.00
2023-05-09T02:31:12.596Z,504.00
2023-05-09T02:32:12.672Z,507.00
2023-05-09T02:33:12.766Z,505.00
2023-05-09T02:34:12.747Z,502.00
2023-05-09T02:35:12.863Z,502.00
2023-05-09T02:36:12.791Z,504.00
2023-05-09T02:37:12.823Z,510.00
2023-05-09T02:38:12.840Z,506.00
2023-05-09T02:39:12.867Z,504.00
2023-05-09T02:40:12.951Z,505.00
2023-05-09T02:41:12.973Z,511.00
2023-05-09T02:42:13.406Z,505.00
2023-05-09T02:43:13.028Z,504.00
2023-05-09T02:44:13.084Z,508.00
2023-05-09T02:45:13.375Z,510.00
2023-05-09T02:46:13.214Z,514.00
2023-05-09T02:47:13.173Z,510.00
2023-05-09T02:48:13.261Z,505.00
2023-05-09T02:49:22.792Z,510.00
2023-05-09T02:50:14.206Z,510.00
2023-05-09T02:51:13.221Z,511.00
2023-05-09T02:52:13.211Z,510.00
2023-05-09T02:53:13.211Z,511.00
2023-05-09T02:54:13.209Z,509.00
2023-05-09T02:55:13.331Z,514.00
2023-05-09T02:56:13.159Z,509.00
2023-05-09T02:57:13.404Z,511.00
2023-05-09T02:58:14.829Z,513.00
2023-05-09T02:59:13.159Z,510.00
2023-05-09T03:00:13.128Z,515.00
2023-05-09T03:01:13.125Z,510.00
2023-05-09T03:02:13.492Z,508.00
2023-05-09T03:03:13.228Z,506.00
2023-05-09T03:04:13.216Z,509.00
2023-05-09T03:05:13.528Z,508.00
2023-05-09T03:06:13.266Z,509.00
2023-05-09T03:07:13.290Z,508.00
2023-05-09T03:08:13.332Z,512.00
2023-05-09T03:09:13.435Z,514.00
2023-05-09T03:10:13.436Z,502.00
2023-05-09T03:11:13.439Z,510.00
2023-05-09T03:12:13.491Z,508.00
2023-05-09T03:13:13.661Z,508.00
2023-05-09T03:14:13.545Z,508.00
2023-05-09T03:15:13.951Z,503.00
2023-05-09T03:16:13.656Z,510.00
2023-05-09T03:17:13.667Z,504.00
2023-05-09T03:18:13.765Z,512.00
2023-05-09T03:19:13.726Z,513.00
2023-05-09T03:20:13.761Z,512.00
2023-05-09T03:21:13.779Z,508.00
2023-05-09T03:22:13.809Z,500.00
2023-05-09T03:23:13.868Z,505.00
2023-05-09T03:24:13.905Z,509.00
2023-05-09T03:25:14.191Z,508.00
2023-05-09T03:26:14.012Z,506.00
2023-05-09T03:27:14.403Z,510.00
2023-05-09T03:28:14.049Z,508.00
2023-05-09T03:29:14.116Z,508.00
2023-05-09T03:30:14.101Z,511.00
2023-05-09T03:31:14.212Z,507.00
2023-05-09T03:32:15.325Z,507.00
2023-05-09T03:33:14.249Z,509.00
2023-05-09T03:34:14.353Z,504.00
2023-05-09T03:35:14.477Z,509.00
2023-05-09T03:36:14.314Z,505.00
2023-05-09T03:37:14.385Z,511.00
2023-05-09T03:38:14.400Z,508.00
2023-05-09T03:39:14.458Z,516.00
2023-05-09T03:40:14.486Z,516.00
2023-05-09T03:41:14.542Z,509.00
2023-05-09T03:42:14.558Z,513.00
2023-05-09T03:43:14.572Z,507.00
2023-05-09T03:44:14.629Z,505.00
2023-05-09T03:45:14.755Z,507.00
2023-05-09T03:46:14.677Z,506.00
2023-05-09T03:47:14.904Z,506.00
2023-05-09T03:48:14.770Z,515.00
2023-05-09T03:49:14.824Z,514.00
2023-05-09T03:50:14.954Z,508.00
2023-05-09T03:51:14.887Z,511.00
2023-05-09T03:52:14.915Z,509.00
2023-05-09T03:53:14.954Z,506.00
2023-05-09T03:54:14.976Z,514.00
2023-05-09T03:55:15.165Z,507.00
2023-05-09T03:56:15.040Z,515.00
2023-05-09T03:57:15.431Z,513.00
2023-05-09T03:58:15.112Z,512.00
2023-05-09T03:59:15.162Z,512.00
2023-05-09T04:00:15.202Z,513.00
2023-05-09T04:01:15.262Z,517.00
2023-05-09T04:02:15.334Z,513.00
2023-05-09T04:03:15.401Z,515.00
2023-05-09T04:04:15.360Z,511.00
2023-05-09T04:05:15.627Z,517.00
2023-05-09T04:06:15.518Z,509.00
2023-05-09T04:07:15.920Z,516.00
2023-05-09T04:08:15.539Z,516.00
2023-05-09T04:09:15.538Z,513.00
2023-05-09T04:10:15.607Z,512.00
2023-05-09T04:11:15.618Z,512.00
2023-05-09T04:12:15.679Z,510.00
2023-05-09T04:13:15.687Z,511.00
2023-05-09T04:14:15.703Z,518.00
2023-05-09T04:15:15.964Z,515.00
2023-05-09T04:16:15.821Z,515.00
2023-05-09T04:17:15.834Z,520.00
2023-05-09T04:18:15.845Z,509.00
2023-05-09T04:19:16.518Z,518.00
2023-05-09T04:20:15.912Z,513.00
2023-05-09T04:21:15.936Z,516.00
2023-05-09T04:22:16.099Z,513.00
2023-05-09T04:23:16.042Z,521.00
2023-05-09T04:24:16.050Z,520.00
2023-05-09T04:25:16.394Z,516.00
2023-05-09T04:26:16.144Z,512.00
2023-05-09T04:27:16.149Z,517.00
2023-05-09T04:28:16.199Z,517.00
2023-05-09T04:29:16.242Z,519.00
2023-05-09T04:30:16.306Z,516.00
2023-05-09T04:31:16.465Z,512.00
2023-05-09T04:32:16.503Z,512.00
2023-05-09T04:33:16.364Z,524.00
2023-05-09T04:34:16.410Z,518.00
2023-05-09T04:35:19.008Z,517.00
2023-05-09T04:36:16.445Z,518.00
2023-05-09T04:37:16.446Z,517.00
2023-05-09T04:38:16.496Z,514.00
2023-05-09T04:39:16.411Z,521.00
2023-05-09T04:40:16.414Z,522.00
2023-05-09T04:41:16.389Z,518.00
2023-05-09T04:42:16.454Z,521.00
2023-05-09T04:43:16.364Z,522.00
2023-05-09T04:44:16.357Z,524.00
2023-05-09T04:45:16.691Z,521.00
2023-05-09T04:46:16.370Z,519.00
2023-05-09T04:47:16.339Z,516.00
2023-05-09T04:48:16.353Z,521.00
2023-05-09T04:49:16.943Z,521.00
2023-05-09T04:50:16.329Z,514.00
2023-05-09T04:51:16.322Z,522.00
2023-05-09T04:52:16.323Z,512.00
2023-05-09T04:53:16.459Z,518.00
2023-05-09T04:54:16.397Z,519.00
2023-05-09T04:55:16.535Z,514.00
2023-05-09T04:56:16.275Z,523.00
2023-05-09T04:57:18.488Z,525.00
2023-05-09T04:58:16.299Z,524.00
2023-05-09T04:59:16.253Z,522.00
2023-05-09T05:00:16.286Z,525.00
2023-05-09T05:01:16.250Z,524.00
2023-05-09T05:02:16.258Z,523.00
2023-05-09T05:03:16.259Z,518.00
2023-05-09T05:04:16.247Z,524.00
2023-05-09T05:05:16.271Z,519.00
2023-05-09T05:06:16.229Z,530.00
2023-05-09T05:07:16.221Z,526.00
2023-05-09T05:08:16.248Z,524.00
2023-05-09T05:09:16.233Z,523.00
2023-05-09T05:10:16.302Z,516.00
2023-05-09T05:11:16.209Z,520.00
2023-05-09T05:12:16.191Z,523.00
2023-05-09T05:13:16.222Z,523.00
2023-05-09T05:14:16.173Z,523.00
2023-05-09T05:15:16.351Z,522.00
2023-05-09T05:16:16.176Z,517.00
2023-05-09T05:17:16.151Z,523.00
2023-05-09T05:18:16.130Z,522.00
2023-05-09T05:19:16.110Z,521.00
2023-05-09T05:20:16.118Z,527.00
2023-05-09T05:21:16.123Z,523.00
2023-05-09T05:22:16.130Z,531.00
2023-05-09T05:23:16.129Z,602.00
2023-05-09T05:24:16.097Z,602.00
2023-05-09T05:25:16.306Z,621.00
2023-05-09T05:26:16.158Z,636.00
2023-05-09T05:27:16.121Z,616.00
2023-05-09T05:28:16.047Z,584.00
2023-05-09T05:29:16.081Z,567.00
2023-05-09T05:30:16.087Z,559.00
2023-05-09T05:31:16.119Z,558.00
2023-05-09T05:32:16.049Z,557.00
2023-05-09T05:33:16.052Z,558.00
2023-05-09T05:34:16.036Z,555.00
2023-05-09T05:35:16.279Z,561.00
2023-05-09T05:36:16.006Z,561.00
2023-05-09T05:37:16.011Z,562.00
2023-05-09T05:38:16.028Z,565.00
2023-05-09T05:39:15.988Z,571.00
2023-05-09T05:40:16.007Z,563.00
2023-05-09T05:41:15.997Z,569.00
2023-05-09T05:42:16.072Z,559.00
2023-05-09T05:43:16.477Z,553.00
2023-05-09T05:44:15.966Z,552.00
2023-05-09T05:45:16.356Z,556.00
2023-05-09T05:46:15.987Z,572.00
2023-05-09T05:47:15.940Z,591.00
2023-05-09T05:48:15.921Z,606.00
2023-05-09T05:49:15.917Z,609.00
2023-05-09T05:50:15.926Z,610.00
2023-05-09T05:51:15.943Z,611.00
2023-05-09T05:52:15.913Z,626.00
2023-05-09T05:53:15.981Z,631.00
2023-05-09T05:54:15.924Z,640.00
2023-05-09T05:55:16.235Z,656.00
2023-05-09T05:56:16.007Z,664.00
2023-05-09T05:57:16.054Z,676.00
2023-05-09T05:58:16.555Z,728.00
2023-05-09T05:59:16.139Z,746.00
2023-05-09T06:00:16.107Z,770.00
2023-05-09T06:01:16.106Z,783.00
2023-05-09T06:02:16.184Z,810.00
2023-05-09T06:03:16.535Z,813.00
2023-05-09T06:04:16.286Z,856.00
2023-05-09T06:05:16.477Z,886.00
2023-05-09T06:06:16.221Z,904.00
2023-05-09T06:07:16.200Z,918.00
2023-05-09T06:08:16.487Z,976.00
2023-05-09T06:09:16.220Z,1000.00
2023-05-09T06:10:16.269Z,1027.00
2023-05-09T06:11:16.282Z,1073.00
2023-05-09T06:12:16.344Z,1066.00
2023-05-09T06:13:16.504Z,1091.00
2023-05-09T06:14:16.526Z,1095.00
2023-05-09T06:15:16.802Z,1128.00
2023-05-09T06:16:19.950Z,1153.00
2023-05-09T06:17:16.660Z,1155.00
2023-05-09T06:18:16.513Z,1157.00
2023-05-09T06:19:16.517Z,1174.00
2023-05-09T06:20:16.470Z,1209.00
2023-05-09T06:21:16.498Z,1272.00
2023-05-09T06:22:16.467Z,1278.00
2023-05-09T06:23:16.475Z,1320.00
2023-05-09T06:24:23.841Z,1341.00
2023-05-09T06:25:17.505Z,1342.00
2023-05-09T06:26:16.452Z,1345.00
2023-05-09T06:27:16.433Z,1356.00
2023-05-09T06:28:16.434Z,1372.00
2023-05-09T06:29:16.419Z,1395.00
2023-05-09T06:30:25.349Z,1413.00
2023-05-09T06:31:17.446Z,1414.00
2023-05-09T06:32:16.384Z,1420.00
2023-05-09T06:33:16.411Z,1440.00
2023-05-09T06:34:16.365Z,1494.00
2023-05-09T06:35:16.534Z,1515.00
2023-05-09T06:36:16.382Z,1528.00
2023-05-09T06:37:16.367Z,1538.00
2023-05-09T06:38:16.368Z,1546.00
2023-05-09T06:39:16.434Z,1570.00
2023-05-09T06:40:16.339Z,1563.00
2023-05-09T06:41:16.357Z,1585.00
2023-05-09T06:42:16.361Z,1619.00
2023-05-09T06:43:16.484Z,1613.00
2023-05-09T06:44:16.307Z,1630.00
2023-05-09T06:45:16.732Z,1645.00
2023-05-09T06:46:16.570Z,1688.00
2023-05-09T06:47:16.466Z,1674.00
2023-05-09T06:48:16.527Z,1669.00
2023-05-09T06:49:16.537Z,1677.00
2023-05-09T06:50:16.594Z,1695.00
2023-05-09T06:51:16.621Z,1723.00
2023-05-09T06:52:16.669Z,1753.00
2023-05-09T06:53:16.756Z,1745.00
2023-05-09T06:54:16.799Z,1686.00
2023-05-09T06:55:17.006Z,1679.00
2023-05-09T06:56:17.895Z,1699.00
2023-05-09T06:57:17.042Z,1676.00
2023-05-09T06:58:17.495Z,1686.00
2023-05-09T06:59:17.117Z,1711.00
2023-05-09T07:00:17.189Z,1707.00
2023-05-09T07:01:17.275Z,1714.00
2023-05-09T07:02:17.407Z,1724.00
2023-05-09T07:03:17.378Z,1758.00
2023-05-09T07:04:17.408Z,1763.00
2023-05-09T07:05:17.719Z,1788.00
2023-05-09T07:06:17.464Z,1801.00
2023-05-09T07:07:17.498Z,1814.00
2023-05-09T07:08:17.584Z,1825.00
2023-05-09T07:09:17.603Z,1855.00
2023-05-09T07:10:17.654Z,1854.00
2023-05-09T07:11:17.696Z,1890.00
2023-05-09T07:12:17.740Z,1898.00
2023-05-09T07:13:17.827Z,1908.00
2023-05-09T07:14:17.816Z,1917.00
2023-05-09T07:15:25.931Z,1935.00
2023-05-09T07:16:18.923Z,1935.00
2023-05-09T07:17:23.264Z,1940.00
2023-05-09T07:18:18.935Z,1936.00
2023-05-09T07:19:17.808Z,1937.00
2023-05-09T07:20:17.785Z,1937.00
2023-05-09T07:21:17.816Z,1945.00
2023-05-09T07:22:17.867Z,1950.00
2023-05-09T07:23:17.809Z,1957.00
2023-05-09T07:24:17.782Z,1973.00
2023-05-09T07:25:17.792Z,1956.00
2023-05-09T07:26:17.796Z,1954.00
2023-05-09T07:27:17.865Z,1954.00
2023-05-09T07:28:17.770Z,1957.00
2023-05-09T07:29:17.736Z,1950.00
2023-05-09T07:30:17.725Z,1951.00
2023-05-09T07:31:17.786Z,1953.00
2023-05-09T07:32:17.941Z,1952.00
2023-05-09T07:33:17.812Z,1971.00
2023-05-09T07:34:17.952Z,1972.00
2023-05-09T07:35:17.916Z,1970.00
2023-05-09T07:36:17.898Z,1984.00
2023-05-09T07:37:17.906Z,1983.00
2023-05-09T07:38:18.010Z,1983.00
2023-05-09T07:39:17.997Z,1998.00
2023-05-09T07:40:18.265Z,2007.00
2023-05-09T07:41:18.047Z,2012.00
2023-05-09T07:42:18.085Z,2019.00
2023-05-09T07:43:18.076Z,2003.00
2023-05-09T07:44:18.082Z,2015.00
2023-05-09T07:45:19.013Z,2025.00
2023-05-09T07:46:18.183Z,2058.00
2023-05-09T07:47:18.217Z,2110.00
2023-05-09T07:48:18.496Z,2120.00
2023-05-09T07:49:18.257Z,2122.00
2023-05-09T07:50:18.365Z,2112.00
2023-05-09T07:51:18.296Z,2063.00
2023-05-09T07:52:18.353Z,2076.00
2023-05-09T07:53:18.389Z,2060.00
2023-05-09T07:54:18.463Z,2108.00
2023-05-09T07:55:18.612Z,2089.00
2023-05-09T07:56:18.519Z,2079.00
2023-05-09T07:57:18.548Z,2103.00
2023-05-09T07:58:18.561Z,2069.00
2023-05-09T07:59:18.651Z,2035.00
2023-05-09T08:00:18.656Z,1713.00
2023-05-09T08:01:18.716Z,1590.00
2023-05-09T08:02:18.799Z,1314.00
2023-05-09T08:03:19.006Z,1163.00
2023-05-09T08:04:18.808Z,949.00
2023-05-09T08:05:18.800Z,840.00
2023-05-09T08:06:18.924Z,763.00
2023-05-09T08:07:18.858Z,682.00
2023-05-09T08:08:18.968Z,645.00
2023-05-09T08:09:18.910Z,623.00
2023-05-09T08:10:18.957Z,612.00
2023-05-09T08:11:18.996Z,611.00
2023-05-09T08:12:19.077Z,576.00
2023-05-09T08:13:19.147Z,564.00
2023-05-09T08:14:19.157Z,563.00
2023-05-09T08:15:19.194Z,546.00
2023-05-09T08:16:19.256Z,543.00
2023-05-09T08:17:19.245Z,528.00
2023-05-09T08:18:19.289Z,511.00
2023-05-09T08:19:19.291Z,597.00
2023-05-09T08:20:19.397Z,633.00
2023-05-09T08:21:22.069Z,698.00
2023-05-09T08:22:19.448Z,745.00
2023-05-09T08:23:19.390Z,714.00
2023-05-09T08:24:19.378Z,725.00
2023-05-09T08:25:19.339Z,751.00
2023-05-09T08:26:19.339Z,776.00
2023-05-09T08:27:19.361Z,772.00
2023-05-09T08:28:19.317Z,788.00
2023-05-09T08:29:19.320Z,805.00
2023-05-09T08:30:19.312Z,821.00
2023-05-09T08:31:19.357Z,844.00
2023-05-09T08:32:19.306Z,861.00
2023-05-09T08:33:19.303Z,854.00
2023-05-09T08:34:19.309Z,868.00
2023-05-09T08:35:19.262Z,887.00
2023-05-09T08:36:19.244Z,916.00
2023-05-09T08:37:19.278Z,933.00
2023-05-09T08:38:19.338Z,934.00
2023-05-09T08:39:19.522Z,969.00
2023-05-09T08:40:19.242Z,968.00
2023-05-09T08:41:19.247Z,981.00
2023-05-09T08:42:19.258Z,1003.00
2023-05-09T08:43:19.238Z,1009.00
2023-05-09T08:44:19.542Z,1026.00
2023-05-09T08:45:19.210Z,1039.00
2023-05-09T08:46:19.226Z,1091.00
2023-05-09T08:47:19.250Z,1107.00
2023-05-09T08:48:19.205Z,909.00
2023-05-09T08:49:19.537Z,954.00
2023-05-09T08:50:19.183Z,1060.00
2023-05-09T08:51:19.160Z,1013.00
2023-05-09T08:52:19.137Z,618.00
2023-05-09T08:53:19.146Z,858.00
2023-05-09T08:54:22.164Z,647.00
2023-05-09T08:55:19.117Z,649.00
2023-05-09T08:56:19.106Z,661.00
2023-05-09T08:57:19.157Z,655.00
2023-05-09T08:58:19.136Z,733.00
2023-05-09T08:59:19.155Z,753.00
2023-05-09T09:00:20.647Z,779.00
2023-05-09T09:01:19.125Z,826.00
2023-05-09T09:02:19.102Z,863.00
2023-05-09T09:03:19.068Z,878.00
2023-05-09T09:04:19.548Z,909.00
2023-05-09T09:05:34.632Z,924.00
2023-05-09T09:06:20.073Z,926.00
2023-05-09T09:07:19.052Z,931.00
2023-05-09T09:08:19.096Z,949.00
2023-05-09T09:09:19.544Z,961.00
2023-05-09T09:10:19.120Z,1009.00
2023-05-09T09:11:19.024Z,1007.00
2023-05-09T09:12:19.035Z,1031.00
2023-05-09T09:13:19.106Z,1056.00
2023-05-09T09:14:18.996Z,1053.00
2023-05-09T09:15:18.996Z,892.00
2023-05-09T09:16:19.049Z,859.00
2023-05-09T09:17:19.086Z,866.00
2023-05-09T09:18:19.120Z,850.00
2023-05-09T09:19:19.547Z,939.00
2023-05-09T09:20:19.203Z,985.00
2023-05-09T09:21:19.278Z,1013.00
2023-05-09T09:22:19.338Z,594.00
2023-05-09T09:23:19.357Z,491.00
2023-05-09T09:24:19.412Z,664.00
2023-05-09T09:25:19.499Z,540.00
2023-05-09T09:26:19.573Z,479.00
2023-05-09T09:27:19.536Z,446.00
2023-05-09T09:28:19.565Z,508.00
2023-05-09T09:29:19.593Z,713.00
2023-05-09T09:30:19.653Z,636.00
2023-05-09T09:31:19.712Z,586.00
2023-05-09T09:32:19.703Z,638.00
2023-05-09T09:33:19.694Z,654.00
2023-05-09T09:34:19.729Z,699.00
2023-05-09T09:35:19.715Z,778.00
2023-05-09T09:36:19.726Z,807.00
2023-05-09T09:37:19.784Z,857.00
2023-05-09T09:38:19.784Z,883.00
2023-05-09T09:39:19.812Z,900.00
2023-05-09T09:40:19.869Z,932.00
2023-05-09T09:41:19.908Z,975.00
2023-05-09T09:42:20.036Z,1005.00
2023-05-09T09:43:19.994Z,1049.00
2023-05-09T09:44:20.066Z,1069.00
2023-05-09T09:45:20.159Z,1115.00
2023-05-09T09:46:20.156Z,1112.00
2023-05-09T09:47:20.139Z,1293.00
2023-05-09T09:48:20.181Z,1294.00
2023-05-09T09:49:20.228Z,1249.00
2023-05-09T09:50:20.349Z,1224.00
2023-05-09T09:51:20.317Z,1234.00
2023-05-09T09:52:20.369Z,1144.00
2023-05-09T09:53:20.392Z,1165.00
2023-05-09T09:54:20.527Z,1185.00
2023-05-09T09:55:20.472Z,1117.00
2023-05-09T09:56:20.513Z,1147.00
2023-05-09T09:57:20.554Z,1165.00
2023-05-09T09:58:20.705Z,1183.00
2023-05-09T09:59:20.677Z,1186.00
2023-05-09T10:00:20.673Z,1185.00
2023-05-09T10:01:20.829Z,1191.00
2023-05-09T10:02:20.760Z,1218.00
2023-05-09T10:03:20.898Z,1235.00
2023-05-09T10:04:20.860Z,1238.00
2023-05-09T10:05:20.874Z,1280.00
2023-05-09T10:06:20.882Z,1311.00
2023-05-09T10:07:20.941Z,1312.00
2023-05-09T10:08:20.941Z,1336.00
2023-05-09T10:09:21.041Z,1361.00
2023-05-09T10:10:20.945Z,1397.00
2023-05-09T10:11:20.996Z,1413.00
2023-05-09T10:12:21.011Z,1436.00
2023-05-09T10:13:21.121Z,1447.00
2023-05-09T10:14:21.120Z,1481.00
2023-05-09T10:15:21.031Z,1505.00
2023-05-09T10:16:28.585Z,1522.00
2023-05-09T10:17:22.188Z,1524.00
2023-05-09T10:18:21.146Z,1531.00
2023-05-09T10:19:21.066Z,1545.00
2023-05-09T10:20:21.020Z,1570.00
2023-05-09T10:21:21.057Z,1625.00
2023-05-09T10:22:20.995Z,1633.00
2023-05-09T10:23:21.014Z,1650.00
2023-05-09T10:24:21.032Z,1682.00
2023-05-09T10:25:21.013Z,1680.00
2023-05-09T10:26:21.010Z,1673.00
2023-05-09T10:27:21.007Z,1643.00
2023-05-09T10:28:20.967Z,1563.00
2023-05-09T10:29:21.004Z,1406.00
2023-05-09T10:30:21.073Z,1300.00
2023-05-09T10:31:21.018Z,1134.00
2023-05-09T10:32:21.034Z,1077.00
2023-05-09T10:33:21.113Z,1073.00
2023-05-09T10:34:21.129Z,943.00
2023-05-09T10:35:21.152Z,974.00
2023-05-09T10:36:21.238Z,1035.00
2023-05-09T10:37:21.256Z,723.00
2023-05-09T10:38:21.309Z,591.00
2023-05-09T10:39:21.327Z,653.00
2023-05-09T10:40:21.363Z,580.00
2023-05-09T10:41:21.406Z,650.00
2023-05-09T10:42:21.413Z,745.00
2023-05-09T10:43:21.452Z,800.00
2023-05-09T10:44:21.589Z,712.00
2023-05-09T10:45:21.553Z,587.00
2023-05-09T10:46:21.710Z,639.00
2023-05-09T10:47:21.741Z,733.00
2023-05-09T10:48:21.687Z,690.00
2023-05-09T10:49:21.766Z,620.00
2023-05-09T10:50:21.817Z,593.00
2023-05-09T10:51:21.843Z,583.00
2023-05-09T10:52:21.907Z,593.00
2023-05-09T10:53:21.954Z,622.00
2023-05-09T10:54:22.084Z,610.00
2023-05-09T10:55:22.074Z,611.00
2023-05-09T10:56:22.115Z,606.00
2023-05-09T10:57:22.172Z,602.00
2023-05-09T10:58:22.200Z,596.00
2023-05-09T10:59:22.259Z,582.00
2023-05-09T11:00:22.309Z,576.00
2023-05-09T11:01:22.368Z,574.00
2023-05-09T11:02:22.504Z,574.00
2023-05-09T11:03:22.472Z,566.00
2023-05-09T11:04:22.564Z,575.00
2023-05-09T11:05:22.456Z,568.00
2023-05-09T11:06:22.507Z,565.00
2023-05-09T11:07:22.520Z,556.00
2023-05-09T11:08:22.580Z,564.00
2023-05-09T11:09:22.615Z,565.00
2023-05-09T11:10:22.590Z,555.00
2023-05-09T11:11:22.632Z,562.00
2023-05-09T11:12:22.701Z,571.00
2023-05-09T11:13:22.766Z,583.00
2023-05-09T11:14:23.069Z,581.00
2023-05-09T11:15:22.674Z,589.00
2023-05-09T11:16:22.732Z,592.00
2023-05-09T11:17:22.900Z,601.00
2023-05-09T11:18:22.832Z,601.00
2023-05-09T11:19:22.754Z,603.00
2023-05-09T11:20:22.773Z,611.00
2023-05-09T11:21:22.809Z,615.00
2023-05-09T11:22:22.793Z,619.00
2023-05-09T11:23:22.811Z,620.00
2023-05-09T11:24:22.854Z,624.00
2023-05-09T11:25:22.890Z,625.00
2023-05-09T11:26:22.929Z,632.00
2023-05-09T11:27:22.916Z,634.00
2023-05-09T11:28:23.498Z,640.00
2023-05-09T11:29:23.066Z,636.00
2023-05-09T11:30:22.908Z,644.00
2023-05-09T11:31:22.962Z,646.00
2023-05-09T11:32:23.066Z,646.00
2023-05-09T11:33:23.001Z,650.00
2023-05-09T11:34:23.097Z,657.00
2023-05-09T11:35:23.080Z,655.00
2023-05-09T11:36:23.030Z,661.00
2023-05-09T11:37:23.107Z,666.00
2023-05-09T11:38:23.066Z,663.00
2023-05-09T11:39:23.064Z,673.00
2023-05-09T11:40:23.607Z,675.00
2023-05-09T11:41:23.184Z,674.00
2023-05-09T11:42:23.132Z,686.00
2023-05-09T11:43:23.138Z,668.00
2023-05-09T11:44:23.181Z,698.00
2023-05-09T11:45:23.580Z,694.00
2023-05-09T11:46:23.233Z,712.00
2023-05-09T11:47:23.260Z,711.00
2023-05-09T11:48:23.205Z,699.00
2023-05-09T11:49:23.212Z,717.00
2023-05-09T11:50:23.326Z,724.00
2023-05-09T11:51:23.297Z,705.00
2023-05-09T11:52:23.244Z,722.00
2023-05-09T11:53:23.247Z,737.00
2023-05-09T11:54:23.286Z,734.00
2023-05-09T11:55:23.644Z,739.00
2023-05-09T11:56:23.329Z,724.00
2023-05-09T11:57:23.296Z,731.00
2023-05-09T11:58:23.347Z,750.00
2023-05-09T11:59:23.368Z,733.00
2023-05-09T12:00:23.348Z,741.00
2023-05-09T12:01:23.363Z,745.00
2023-05-09T12:02:23.413Z,743.00
2023-05-09T12:03:23.474Z,760.00
2023-05-09T12:04:23.417Z,752.00
2023-05-09T12:05:23.455Z,768.00
2023-05-09T12:06:23.498Z,766.00
2023-05-09T12:07:23.450Z,769.00
2023-05-09T12:08:23.489Z,780.00
2023-05-09T12:09:23.490Z,761.00
2023-05-09T12:10:23.601Z,771.00
2023-05-09T12:11:23.542Z,786.00
2023-05-09T12:12:23.543Z,782.00
2023-05-09T12:13:23.632Z,782.00
2023-05-09T12:14:23.589Z,791.00
2023-05-09T12:15:23.587Z,790.00
2023-05-09T12:16:23.690Z,777.00
2023-05-09T12:17:23.705Z,796.00
2023-05-09T12:18:23.663Z,794.00
2023-05-09T12:19:23.705Z,794.00
2023-05-09T12:20:24.097Z,783.00
2023-05-09T12:21:23.715Z,791.00
2023-05-09T12:22:23.794Z,785.00